createdAt,value
2023-11-07T00:08:29.114Z,15.77
2023-11-07T00:18:31.022Z,16.33
2023-11-07T00:28:33.023Z,12.38
2023-11-07T00:38:36.859Z,16.85
2023-11-07T00:48:38.679Z,20.15
2023-11-07T00:58:40.676Z,13.20
2023-11-07T01:08:42.507Z,17.40
2023-11-07T01:18:44.422Z,18.75
2023-11-07T01:28:46.295Z,15.30
2023-11-07T01:38:48.243Z,15.88
2023-11-07T01:48:50.287Z,17.88
2023-11-07T01:58:54.437Z,12.63
2023-11-07T02:09:00.009Z,19.85
2023-11-07T02:19:01.799Z,17.23
2023-11-07T02:29:03.549Z,15.70
2023-11-07T02:39:08.622Z,13.45
2023-11-07T02:49:11.720Z,14.65
2023-11-07T02:59:14.519Z,17.58
2023-11-07T03:09:16.369Z,25.03
2023-11-07T03:19:18.193Z,32.95
2023-11-07T03:29:19.909Z,50.85
2023-11-07T03:39:21.781Z,31.23
2023-11-07T03:49:23.997Z,22.85
2023-11-07T03:59:27.042Z,26.20
2023-11-07T04:09:30.707Z,16.35
2023-11-07T04:19:35.088Z,18.20
2023-11-07T04:29:38.236Z,20.30
2023-11-07T04:39:40.472Z,25.08
2023-11-07T04:49:44.334Z,24.08
2023-11-07T04:59:47.560Z,17.02
2023-11-07T05:09:49.414Z,21.85
2023-11-07T05:19:51.092Z,25.10
2023-11-07T05:29:52.890Z,17.35
2023-11-07T05:39:55.519Z,18.98
2023-11-07T05:49:57.245Z,20.07
2023-11-07T06:00:00.047Z,18.70
2023-11-07T06:10:02.340Z,20.35
2023-11-07T06:20:04.640Z,38.05
2023-11-07T06:30:08.477Z,21.57
2023-11-07T06:40:19.035Z,24.98
2023-11-07T06:50:21.249Z,45.05
2023-11-07T07:00:26.576Z,20.70
2023-11-07T07:10:29.023Z,32.65
2023-11-07T07:20:30.781Z,20.48
2023-11-07T07:30:33.688Z,13.75
2023-11-07T07:40:35.411Z,24.30
2023-11-07T07:50:43.003Z,14.70
2023-11-07T08:00:50.971Z,17.15
2023-11-07T08:11:01.873Z,15.95
2023-11-07T08:21:05.520Z,18.20
2023-11-07T08:31:08.373Z,17.50
2023-11-07T08:41:12.909Z,22.83
2023-11-07T08:51:16.123Z,29.48
2023-11-07T09:01:20.231Z,28.52
2023-11-07T09:11:24.370Z,29.25
2023-11-07T09:21:26.000Z,30.50
2023-11-07T09:31:29.657Z,21.63
2023-11-07T09:41:33.258Z,16.80
2023-11-07T09:51:38.965Z,24.25
2023-11-07T10:01:44.299Z,19.25
2023-11-07T10:11:54.670Z,19.60
2023-11-07T10:21:57.590Z,20.98
2023-11-07T10:42:20.527Z,20.30
2023-11-07T10:52:22.631Z,19.25
2023-11-07T11:02:27.821Z,19.63
2023-11-07T11:12:29.915Z,17.65
2023-11-07T11:23:07.768Z,24.70
2023-11-07T11:33:13.519Z,18.85
2023-11-07T11:43:15.436Z,21.15
2023-11-07T11:53:33.843Z,23.00
2023-11-07T12:03:40.391Z,23.83
2023-11-07T12:13:43.818Z,24.67
2023-11-07T12:23:46.483Z,20.85
2023-11-07T12:33:48.657Z,17.35
2023-11-07T12:43:51.632Z,16.70
2023-11-07T12:53:55.215Z,16.42
2023-11-07T13:03:57.126Z,17.35
2023-11-07T13:13:58.974Z,19.33
2023-11-07T13:24:01.740Z,20.77
2023-11-07T13:34:05.073Z,19.27
2023-11-07T13:44:08.764Z,20.70
2023-11-07T13:54:11.671Z,17.33
2023-11-07T14:04:14.342Z,22.55
2023-11-07T14:14:21.347Z,20.17
2023-11-07T14:24:25.598Z,21.25
2023-11-07T14:34:27.402Z,23.02
2023-11-07T14:44:29.205Z,21.20
2023-11-07T14:54:41.357Z,29.37
2023-11-07T15:04:46.735Z,28.83
2023-11-07T15:14:57.528Z,29.40
2023-11-07T15:25:00.650Z,23.42
2023-11-07T15:35:07.565Z,24.38
2023-11-07T15:45:14.042Z,23.15
2023-11-07T15:55:15.729Z,25.63
2023-11-07T16:05:20.005Z,27.73
2023-11-07T16:15:23.068Z,20.90
2023-11-07T16:25:30.297Z,22.70
2023-11-07T16:35:32.463Z,25.23
2023-11-07T16:45:34.620Z,20.07
2023-11-07T16:55:37.822Z,28.03
2023-11-07T17:05:42.729Z,27.35
2023-11-07T17:15:45.250Z,22.80
2023-11-07T17:25:49.024Z,26.17
2023-11-07T17:35:51.565Z,27.10
2023-11-07T17:55:57.583Z,22.30
2023-11-07T18:05:59.959Z,24.55
2023-11-07T18:16:02.308Z,30.50
2023-11-07T18:26:07.894Z,28.73
2023-11-07T18:36:10.374Z,24.13
2023-11-07T18:46:13.672Z,26.30
2023-11-07T18:56:17.839Z,28.20
2023-11-07T19:06:22.667Z,27.67
2023-11-07T19:16:30.308Z,22.33
2023-11-07T19:26:38.916Z,27.98
2023-11-07T19:36:41.800Z,29.15
2023-11-07T19:56:49.202Z,30.87
2023-11-07T20:06:54.741Z,28.13
2023-11-07T20:16:58.239Z,28.45
2023-11-07T20:27:03.505Z,27.83
2023-11-07T20:37:06.564Z,25.80
2023-11-07T20:47:31.271Z,28.52
2023-11-07T20:57:36.543Z,29.27
2023-11-07T21:07:42.022Z,31.92
2023-11-07T21:17:44.814Z,32.45
2023-11-07T21:38:00.928Z,35.17
2023-11-07T21:48:07.648Z,33.25
2023-11-07T21:58:09.625Z,30.25
2023-11-07T22:08:12.253Z,34.83
2023-11-07T22:18:14.670Z,31.60
2023-11-07T22:28:17.520Z,31.23
2023-11-07T22:38:20.540Z,27.33
2023-11-07T22:48:29.347Z,36.75
2023-11-07T22:58:31.307Z,31.73
2023-11-07T23:08:34.498Z,30.80
2023-11-07T23:18:38.248Z,34.53
2023-11-07T23:28:40.190Z,36.88
2023-11-07T23:38:43.286Z,32.13
2023-11-07T23:48:45.067Z,32.75
2023-11-07T23:58:48.911Z,30.02
